createdAt,value
2022-08-11T00:01:21.413Z,38.99
2022-08-11T00:03:51.183Z,38.90
2022-08-11T00:06:27.312Z,39.36
2022-08-11T00:09:01.277Z,39.22
2022-08-11T00:11:49.373Z,39.71
2022-08-11T00:14:23.222Z,39.49
2022-08-11T00:17:08.515Z,39.44
2022-08-11T00:20:13.769Z,39.35
2022-08-11T00:22:29.922Z,39.67
2022-08-11T00:25:02.550Z,39.53
2022-08-11T00:27:36.613Z,39.64
2022-08-11T00:30:05.692Z,39.66
2022-08-11T00:32:32.559Z,40.67
2022-08-11T00:35:53.752Z,39.79
2022-08-11T00:37:49.999Z,39.85
2022-08-11T00:40:18.962Z,40.75
2022-08-11T00:43:04.943Z,40.33
2022-08-11T00:46:05.164Z,41.43
2022-08-11T00:48:47.740Z,41.10
2022-08-11T00:52:03.944Z,41.40
2022-08-11T00:54:41.125Z,40.89
2022-08-11T00:57:36.942Z,41.91
2022-08-11T01:00:25.597Z,42.01
2022-08-11T01:03:09.921Z,41.77
2022-08-11T01:06:08.076Z,42.29
2022-08-11T01:09:22.353Z,42.09
2022-08-11T01:12:14.443Z,42.04
2022-08-11T01:15:00.273Z,41.69
2022-08-11T01:17:26.883Z,41.73
2022-08-11T01:20:45.417Z,42.11
2022-08-11T01:23:20.329Z,41.88
2022-08-11T01:26:15.047Z,42.33
2022-08-11T01:28:54.094Z,42.19
2022-08-11T01:31:49.978Z,42.23
2022-08-11T01:34:41.746Z,42.29
2022-08-11T01:37:36.338Z,42.23
2022-08-11T01:40:11.869Z,42.29
2022-08-11T01:43:23.813Z,42.44
2022-08-11T01:46:25.410Z,42.23
2022-08-11T01:50:08.324Z,42.40
2022-08-11T01:52:19.948Z,42.44
2022-08-11T01:55:14.997Z,42.52
2022-08-11T01:57:53.638Z,42.63
2022-08-11T02:00:25.026Z,42.33
2022-08-11T02:03:17.071Z,42.85
2022-08-11T02:05:43.773Z,42.29
2022-08-11T02:08:33.602Z,42.51
2022-08-11T02:11:31.574Z,42.47
2022-08-11T02:14:17.381Z,42.32
2022-08-11T02:16:55.960Z,42.62
2022-08-11T02:20:14.507Z,42.90
2022-08-11T02:24:04.178Z,42.69
2022-08-11T02:26:26.881Z,42.39
2022-08-11T02:29:15.288Z,42.74
2022-08-11T02:32:28.792Z,42.54
2022-08-11T02:35:42.922Z,42.76
2022-08-11T02:38:25.052Z,42.46
2022-08-11T02:41:35.446Z,42.75
2022-08-11T02:44:16.920Z,42.64
2022-08-11T02:47:02.099Z,42.78
2022-08-11T02:50:02.652Z,43.36
2022-08-11T02:52:47.768Z,43.50
2022-08-11T02:55:56.425Z,43.14
2022-08-11T02:58:39.261Z,44.16
2022-08-11T03:01:24.170Z,44.14
2022-08-11T03:04:01.256Z,44.08
2022-08-11T03:06:41.417Z,44.16
2022-08-11T03:09:19.647Z,44.19
2022-08-11T03:12:16.622Z,44.35
2022-08-11T03:15:01.924Z,44.27
2022-08-11T03:18:03.994Z,44.70
2022-08-11T03:20:44.924Z,44.58
2022-08-11T03:23:19.677Z,44.17
2022-08-11T03:26:07.793Z,44.81
2022-08-11T03:28:42.085Z,44.81
2022-08-11T03:31:27.654Z,44.72
2022-08-11T03:34:14.191Z,44.76
2022-08-11T03:37:53.427Z,45.01
2022-08-11T03:40:43.051Z,44.22
2022-08-11T03:43:45.766Z,44.50
2022-08-11T03:46:27.683Z,44.72
2022-08-11T03:49:10.278Z,45.09
2022-08-11T03:51:52.316Z,44.67
2022-08-11T03:54:28.422Z,44.79
2022-08-11T03:57:22.473Z,44.89
2022-08-11T04:00:11.255Z,44.77
2022-08-11T04:03:15.743Z,44.94
2022-08-11T04:06:11.775Z,45.05
2022-08-11T04:09:16.962Z,45.23
2022-08-11T04:12:14.778Z,45.67
2022-08-11T04:15:15.781Z,45.40
2022-08-11T04:18:00.922Z,45.19
2022-08-11T04:20:30.634Z,45.41
2022-08-11T04:24:36.133Z,45.91
2022-08-11T04:26:34.483Z,45.42
2022-08-11T04:30:01.017Z,45.66
2022-08-11T04:32:48.959Z,45.51
2022-08-11T04:35:35.190Z,45.46
2022-08-11T04:38:10.915Z,45.03
2022-08-11T04:41:01.085Z,45.43
2022-08-11T04:44:05.797Z,45.31
2022-08-11T04:46:32.573Z,45.83
2022-08-11T04:49:43.981Z,45.68
2022-08-11T04:52:53.837Z,45.72
2022-08-11T04:55:57.835Z,45.34
2022-08-11T04:59:08.242Z,45.11
2022-08-11T05:01:44.182Z,44.99
2022-08-11T05:04:53.922Z,45.30
2022-08-11T05:07:41.631Z,45.17
2022-08-11T05:10:20.369Z,44.93
2022-08-11T05:13:18.453Z,45.58
2022-08-11T05:16:14.926Z,44.88
2022-08-11T05:19:10.958Z,45.30
2022-08-11T05:22:01.376Z,44.72
2022-08-11T05:24:56.358Z,44.60
2022-08-11T05:27:55.707Z,44.58
2022-08-11T05:30:46.851Z,44.39
2022-08-11T05:33:42.769Z,44.25
2022-08-11T05:36:23.976Z,44.57
2022-08-11T05:39:16.463Z,44.05
2022-08-11T05:42:01.938Z,44.19
2022-08-11T05:44:47.716Z,43.75
2022-08-11T05:47:44.252Z,43.71
2022-08-11T05:50:33.110Z,43.82
2022-08-11T05:53:18.691Z,43.31
2022-08-11T05:56:04.458Z,43.17
2022-08-11T05:58:41.306Z,43.04
2022-08-11T06:01:10.805Z,43.09
2022-08-11T06:03:58.519Z,42.89
2022-08-11T06:06:29.337Z,42.79
2022-08-11T06:08:57.723Z,42.39
2022-08-11T06:11:42.851Z,42.29
2022-08-11T06:14:12.832Z,42.15
2022-08-11T06:16:43.744Z,41.59
2022-08-11T06:19:10.619Z,41.51
2022-08-11T06:21:38.433Z,41.58
2022-08-11T06:24:12.787Z,41.57
2022-08-11T06:27:08.993Z,41.54
2022-08-11T06:29:47.962Z,41.32
2022-08-11T06:32:28.172Z,41.13
2022-08-11T06:35:13.822Z,40.92
2022-08-11T06:37:42.353Z,40.89
2022-08-11T06:40:17.779Z,40.86
2022-08-11T06:42:58.793Z,40.92
2022-08-11T06:45:48.322Z,40.65
2022-08-11T06:48:22.044Z,40.25
2022-08-11T06:51:17.353Z,40.28
2022-08-11T06:53:56.339Z,39.89
2022-08-11T06:57:28.478Z,39.86
2022-08-11T07:00:09.962Z,39.51
2022-08-11T07:02:42.839Z,39.21
2022-08-11T07:05:48.474Z,38.58
2022-08-11T07:08:44.837Z,38.37
2022-08-11T07:12:06.006Z,38.31
2022-08-11T07:15:01.104Z,39.31
2022-08-11T07:17:32.094Z,38.42
2022-08-11T07:20:18.923Z,38.25
2022-08-11T07:23:09.866Z,37.96
2022-08-11T07:26:00.775Z,37.99
2022-08-11T07:28:47.903Z,38.40
2022-08-11T07:31:21.480Z,37.63
2022-08-11T07:34:07.618Z,37.56
2022-08-11T07:36:45.057Z,37.64
2022-08-11T07:39:27.551Z,37.27
2022-08-11T07:41:57.268Z,37.04
2022-08-11T07:44:34.993Z,37.00
2022-08-11T07:47:21.292Z,37.12
2022-08-11T07:50:11.124Z,37.38
2022-08-11T07:52:40.656Z,36.16
2022-08-11T07:55:17.703Z,36.58
2022-08-11T07:58:16.785Z,36.70
2022-08-11T08:01:21.553Z,36.98
2022-08-11T08:04:12.747Z,36.83
2022-08-11T08:07:00.491Z,36.14
2022-08-11T08:09:46.250Z,35.73
2022-08-11T08:12:31.949Z,35.79
2022-08-11T08:15:17.742Z,35.86
2022-08-11T08:18:09.997Z,35.30
2022-08-11T08:20:50.106Z,35.51
2022-08-11T08:23:33.343Z,35.66
2022-08-11T08:26:04.465Z,35.13
2022-08-11T08:28:32.951Z,35.37
2022-08-11T08:31:02.484Z,35.19
2022-08-11T08:33:31.118Z,35.42
2022-08-11T08:36:13.062Z,35.55
2022-08-11T08:38:51.078Z,35.43
2022-08-11T08:41:23.403Z,34.73
2022-08-11T08:43:52.144Z,34.60
2022-08-11T08:46:22.297Z,34.37
2022-08-11T08:48:50.436Z,34.17
2022-08-11T08:52:01.516Z,33.79
2022-08-11T08:54:37.739Z,34.46
2022-08-11T08:57:08.283Z,33.69
2022-08-11T08:59:48.447Z,33.26
2022-08-11T09:02:17.766Z,32.49
2022-08-11T09:04:46.022Z,33.49
2022-08-11T09:07:15.507Z,32.79
2022-08-11T09:09:48.559Z,32.13
2022-08-11T09:12:36.539Z,32.78
2022-08-11T09:15:11.796Z,32.08
2022-08-11T09:17:41.116Z,31.85
2022-08-11T09:20:34.217Z,30.20
2022-08-11T09:24:07.992Z,30.85
2022-08-11T09:26:31.017Z,30.27
2022-08-11T09:28:58.552Z,27.32
2022-08-11T09:31:26.799Z,29.53
2022-08-11T09:33:57.317Z,29.56
2022-08-11T09:36:43.026Z,28.41
2022-08-11T09:39:34.626Z,28.21
2022-08-11T09:42:07.074Z,29.09
2022-08-11T09:44:50.627Z,29.64
2022-08-11T09:47:29.501Z,29.70
2022-08-11T09:50:00.596Z,29.68
2022-08-11T09:52:33.688Z,29.94
2022-08-11T09:55:01.380Z,30.49
2022-08-11T09:57:49.219Z,30.12
2022-08-11T10:00:18.837Z,29.70
2022-08-11T10:02:47.612Z,29.00
2022-08-11T10:05:33.968Z,29.24
2022-08-11T10:08:04.044Z,29.77
2022-08-11T10:10:36.563Z,29.33
2022-08-11T10:14:04.825Z,29.09
2022-08-11T10:16:16.005Z,28.79
2022-08-11T10:18:53.823Z,29.03
2022-08-11T10:21:28.416Z,27.35
2022-08-11T10:24:18.207Z,28.19
2022-08-11T10:26:55.834Z,28.54
2022-08-11T10:29:52.106Z,27.69
2022-08-11T10:32:57.931Z,27.58
2022-08-11T10:35:30.288Z,27.50
2022-08-11T10:38:07.277Z,27.48
2022-08-11T10:40:39.085Z,26.98
2022-08-11T10:43:08.226Z,27.65
2022-08-11T10:46:00.080Z,27.16
2022-08-11T10:48:29.023Z,26.95
2022-08-11T10:51:14.893Z,26.52
2022-08-11T10:54:12.382Z,26.37
2022-08-11T10:56:58.747Z,26.49
2022-08-11T10:59:28.045Z,25.99
2022-08-11T11:01:59.064Z,25.42
2022-08-11T11:05:01.929Z,25.68
2022-08-11T11:07:44.443Z,26.21
2022-08-11T11:10:11.492Z,25.70
2022-08-11T11:13:06.455Z,25.31
2022-08-11T11:15:54.845Z,24.35
2022-08-11T11:18:28.831Z,22.66
2022-08-11T11:21:01.582Z,22.44
2022-08-11T11:23:47.330Z,22.45
2022-08-11T11:26:41.306Z,22.52
2022-08-11T11:29:33.270Z,22.61
2022-08-11T11:32:20.569Z,21.51
2022-08-11T11:35:07.105Z,23.05
2022-08-11T11:37:37.106Z,23.14
2022-08-11T11:40:15.464Z,23.21
2022-08-11T11:42:44.933Z,23.42
2022-08-11T11:45:22.726Z,23.20
2022-08-11T11:47:54.022Z,22.94
2022-08-11T11:50:34.752Z,23.18
2022-08-11T11:53:07.354Z,23.29
2022-08-11T11:55:37.176Z,23.49
2022-08-11T11:58:23.626Z,23.00
2022-08-11T12:01:10.487Z,21.93
2022-08-11T12:03:44.864Z,23.18
2022-08-11T12:06:14.429Z,23.16
2022-08-11T12:08:42.169Z,21.51
2022-08-11T12:11:31.341Z,21.04
2022-08-11T12:14:04.696Z,20.90
2022-08-11T12:16:40.591Z,19.77
2022-08-11T12:19:12.397Z,19.23
2022-08-11T12:22:00.935Z,20.62
2022-08-11T12:24:49.987Z,20.63
2022-08-11T12:27:24.174Z,20.88
2022-08-11T12:30:01.171Z,20.81
2022-08-11T12:32:32.783Z,20.83
2022-08-11T12:35:05.592Z,21.32
2022-08-11T12:37:38.433Z,20.89
2022-08-11T12:40:49.926Z,20.55
2022-08-11T12:43:38.049Z,21.34
2022-08-11T12:46:31.892Z,21.41
2022-08-11T12:49:18.533Z,21.84
2022-08-11T12:52:14.452Z,21.78
2022-08-11T12:55:12.557Z,22.41
2022-08-11T12:58:03.785Z,21.99
2022-08-11T13:00:51.172Z,21.13
2022-08-11T13:03:40.070Z,21.50
2022-08-11T13:06:07.769Z,20.03
2022-08-11T13:08:38.578Z,21.28
2022-08-11T13:11:56.801Z,21.55
2022-08-11T13:14:15.510Z,22.30
2022-08-11T13:17:03.626Z,22.69
2022-08-11T13:19:31.546Z,23.21
2022-08-11T13:22:02.387Z,23.65
2022-08-11T13:24:29.573Z,23.76
2022-08-11T13:27:02.219Z,23.55
2022-08-11T13:29:31.670Z,23.62
2022-08-11T13:32:00.049Z,23.65
2022-08-11T13:34:33.011Z,24.18
2022-08-11T13:37:05.537Z,23.95
2022-08-11T13:39:34.201Z,24.12
2022-08-11T13:42:02.479Z,24.15
2022-08-11T13:44:31.396Z,23.98
2022-08-11T13:47:01.639Z,23.66
2022-08-11T13:49:29.437Z,23.77
2022-08-11T13:51:56.840Z,22.57
2022-08-11T13:54:43.060Z,22.00
2022-08-11T13:57:13.803Z,22.35
2022-08-11T14:00:15.835Z,22.57
2022-08-11T14:02:54.342Z,22.39
2022-08-11T14:05:27.982Z,22.96
2022-08-11T14:08:03.987Z,23.11
2022-08-11T14:10:34.465Z,22.93
2022-08-11T14:13:21.768Z,22.07
2022-08-11T14:15:49.968Z,21.23
2022-08-11T14:18:16.695Z,20.29
2022-08-11T14:21:02.547Z,19.71
2022-08-11T14:23:38.960Z,18.85
2022-08-11T14:26:27.027Z,20.39
2022-08-11T14:28:57.001Z,19.77
2022-08-11T14:31:25.616Z,20.81
2022-08-11T14:34:01.113Z,20.60
2022-08-11T14:36:37.352Z,20.73
2022-08-11T14:39:17.087Z,20.19
2022-08-11T14:42:11.155Z,19.49
2022-08-11T14:45:03.726Z,20.16
2022-08-11T14:47:35.771Z,20.46
2022-08-11T14:50:11.587Z,19.73
2022-08-11T14:52:44.564Z,19.77
2022-08-11T14:55:31.302Z,19.38
2022-08-11T14:57:58.630Z,19.38
2022-08-11T15:00:26.509Z,19.38
2022-08-11T15:03:14.571Z,19.40
2022-08-11T15:05:55.773Z,19.87
2022-08-11T15:08:52.135Z,20.15
2022-08-11T15:11:39.480Z,20.57
2022-08-11T15:14:10.463Z,20.44
2022-08-11T15:16:59.447Z,20.66
2022-08-11T15:19:40.520Z,21.22
2022-08-11T15:22:28.989Z,21.67
2022-08-11T15:24:59.861Z,21.43
2022-08-11T15:27:48.693Z,21.37
2022-08-11T15:30:37.285Z,21.67
2022-08-11T15:33:27.323Z,21.67
2022-08-11T15:36:16.182Z,21.46
2022-08-11T15:39:19.493Z,21.53
2022-08-11T15:42:19.493Z,22.00
2022-08-11T15:45:10.355Z,21.94
2022-08-11T15:47:58.419Z,22.52
2022-08-11T15:50:33.676Z,22.38
2022-08-11T15:53:04.221Z,22.74
2022-08-11T15:55:33.237Z,23.08
2022-08-11T15:58:22.173Z,23.64
2022-08-11T16:01:11.359Z,23.71
2022-08-11T16:04:13.288Z,24.30
2022-08-11T16:06:49.453Z,24.38
2022-08-11T16:09:52.042Z,24.78
2022-08-11T16:12:23.653Z,24.67
2022-08-11T16:15:15.215Z,24.84
2022-08-11T16:17:57.011Z,25.30
2022-08-11T16:20:26.619Z,25.16
2022-08-11T16:23:02.463Z,25.77
2022-08-11T16:27:03.405Z,25.86
2022-08-11T16:28:20.804Z,26.22
2022-08-11T16:30:48.487Z,26.26
2022-08-11T16:33:48.703Z,26.73
2022-08-11T16:36:24.891Z,26.74
2022-08-11T16:38:53.200Z,26.67
2022-08-11T16:41:42.246Z,26.71
2022-08-11T16:44:37.094Z,26.72
2022-08-11T16:47:10.935Z,26.75
2022-08-11T16:49:53.300Z,27.10
2022-08-11T16:52:23.380Z,27.02
2022-08-11T16:54:52.623Z,27.50
2022-08-11T16:57:43.874Z,27.30
2022-08-11T17:00:16.464Z,27.69
2022-08-11T17:03:15.562Z,27.58
2022-08-11T17:06:05.482Z,28.04
2022-08-11T17:08:58.488Z,28.52
2022-08-11T17:11:53.108Z,28.31
2022-08-11T17:14:36.229Z,28.86
2022-08-11T17:17:08.935Z,29.69
2022-08-11T17:20:41.298Z,30.17
2022-08-11T17:22:54.752Z,29.64
2022-08-11T17:25:24.937Z,31.43
2022-08-11T17:27:52.655Z,30.60
2022-08-11T17:30:20.322Z,31.55
2022-08-11T17:33:08.281Z,31.32
2022-08-11T17:35:44.768Z,32.37
2022-08-11T17:38:16.627Z,31.32
2022-08-11T17:41:08.441Z,31.14
2022-08-11T17:43:54.642Z,31.52
2022-08-11T17:46:40.433Z,31.69
2022-08-11T17:49:09.012Z,32.85
2022-08-11T17:51:54.846Z,33.07
2022-08-11T17:54:45.671Z,32.57
2022-08-11T17:57:36.115Z,32.49
2022-08-11T18:00:09.635Z,33.51
2022-08-11T18:03:00.099Z,33.14
2022-08-11T18:05:35.093Z,34.03
2022-08-11T18:08:25.992Z,33.36
2022-08-11T18:11:13.233Z,33.69
2022-08-11T18:14:10.308Z,34.52
2022-08-11T18:16:55.638Z,34.10
2022-08-11T18:19:40.992Z,34.27
2022-08-11T18:22:40.786Z,35.08
2022-08-11T18:25:31.628Z,34.76
2022-08-11T18:28:18.492Z,34.76
2022-08-11T18:31:09.645Z,34.90
2022-08-11T18:34:10.918Z,35.49
2022-08-11T18:37:27.236Z,35.98
2022-08-11T18:40:25.163Z,35.54
2022-08-11T18:43:15.913Z,35.34
2022-08-11T18:46:08.317Z,35.43
2022-08-11T18:48:58.197Z,35.59
2022-08-11T18:51:43.890Z,35.60
2022-08-11T18:54:30.359Z,35.76
2022-08-11T18:57:20.368Z,35.50
2022-08-11T19:00:06.208Z,35.31
2022-08-11T19:02:56.111Z,35.62
2022-08-11T19:06:05.234Z,35.57
2022-08-11T19:09:00.706Z,35.72
2022-08-11T19:11:47.816Z,35.55
2022-08-11T19:14:36.218Z,35.76
2022-08-11T19:17:43.498Z,36.08
2022-08-11T19:20:36.658Z,36.18
2022-08-11T19:23:27.500Z,36.31
2022-08-11T19:26:13.288Z,36.56
2022-08-11T19:29:01.628Z,36.37
2022-08-11T19:31:52.447Z,36.59
2022-08-11T19:34:40.342Z,36.64
2022-08-11T19:37:29.162Z,36.66
2022-08-11T19:40:20.801Z,37.00
2022-08-11T19:43:16.846Z,36.86
2022-08-11T19:46:15.272Z,36.91
2022-08-11T19:49:00.538Z,37.25
2022-08-11T19:51:47.538Z,36.50
2022-08-11T19:54:42.290Z,36.65
2022-08-11T19:57:32.529Z,36.49
2022-08-11T20:00:30.032Z,36.80
2022-08-11T20:03:19.523Z,37.02
2022-08-11T20:06:06.512Z,36.98
2022-08-11T20:08:58.515Z,36.83
2022-08-11T20:11:48.754Z,37.15
2022-08-11T20:14:36.045Z,37.28
2022-08-11T20:17:22.540Z,37.33
2022-08-11T20:20:09.796Z,37.48
2022-08-11T20:22:55.560Z,37.60
2022-08-11T20:25:42.492Z,37.79
2022-08-11T20:28:28.493Z,37.72
2022-08-11T20:31:17.229Z,37.74
2022-08-11T20:34:03.078Z,37.91
2022-08-11T20:36:52.539Z,38.01
2022-08-11T20:39:43.628Z,37.98
2022-08-11T20:42:33.095Z,38.15
2022-08-11T20:45:23.970Z,38.31
2022-08-11T20:48:15.002Z,38.26
2022-08-11T20:51:07.557Z,38.59
2022-08-11T20:53:58.456Z,38.59
2022-08-11T20:56:46.562Z,38.48
2022-08-11T20:59:38.438Z,38.85
2022-08-11T21:02:35.544Z,38.70
2022-08-11T21:06:10.226Z,38.82
2022-08-11T21:08:31.035Z,38.99
2022-08-11T21:11:27.740Z,39.05
2022-08-11T21:14:14.219Z,39.02
2022-08-11T21:17:00.576Z,39.08
2022-08-11T21:19:59.984Z,39.20
2022-08-11T21:23:05.504Z,39.21
2022-08-11T21:26:04.253Z,39.06
2022-08-11T21:28:50.500Z,39.12
2022-08-11T21:31:39.200Z,39.31
2022-08-11T21:34:25.108Z,39.33
2022-08-11T21:37:11.466Z,39.48
2022-08-11T21:39:58.472Z,39.42
2022-08-11T21:42:47.037Z,39.40
2022-08-11T21:45:32.760Z,39.50
2022-08-11T21:48:19.043Z,39.77
2022-08-11T21:51:04.471Z,39.80
2022-08-11T21:53:50.744Z,39.85
2022-08-11T21:56:36.431Z,40.04
2022-08-11T21:59:21.727Z,40.38
2022-08-11T22:02:12.863Z,40.59
2022-08-11T22:04:59.343Z,40.68
2022-08-11T22:07:45.215Z,41.28
2022-08-11T22:10:40.552Z,40.98
2022-08-11T22:13:27.532Z,40.96
2022-08-11T22:16:13.291Z,41.68
2022-08-11T22:18:58.905Z,41.11
2022-08-11T22:22:02.570Z,41.31
2022-08-11T22:24:51.325Z,41.07
2022-08-11T22:27:37.132Z,41.40
2022-08-11T22:30:26.142Z,41.42
2022-08-11T22:33:12.018Z,41.45
2022-08-11T22:36:00.343Z,41.84
2022-08-11T22:38:50.013Z,41.54
2022-08-11T22:41:35.365Z,41.25
2022-08-11T22:44:21.587Z,41.42
2022-08-11T22:47:08.213Z,41.71
2022-08-11T22:49:58.522Z,41.61
2022-08-11T22:52:47.117Z,41.54
2022-08-11T22:55:33.861Z,41.36
2022-08-11T22:58:23.199Z,41.38
2022-08-11T23:01:17.450Z,41.69
2022-08-11T23:04:05.399Z,41.50
2022-08-11T23:06:53.291Z,41.36
2022-08-11T23:09:39.011Z,41.84
2022-08-11T23:12:24.765Z,41.55
2022-08-11T23:15:10.714Z,41.77
2022-08-11T23:18:01.991Z,42.10
2022-08-11T23:20:56.626Z,41.94
2022-08-11T23:23:44.500Z,41.82
2022-08-11T23:26:30.039Z,42.08
2022-08-11T23:29:16.402Z,41.92
2022-08-11T23:32:04.882Z,41.92
2022-08-11T23:35:03.790Z,42.00
2022-08-11T23:37:50.474Z,42.11
2022-08-11T23:40:39.715Z,41.88
2022-08-11T23:43:26.043Z,41.96
2022-08-11T23:46:11.313Z,42.06
2022-08-11T23:49:00.352Z,42.24
2022-08-11T23:51:46.928Z,42.24
2022-08-11T23:54:37.303Z,42.39
2022-08-11T23:57:24.013Z,42.96
